createdAt,value
2022-11-14T00:01:34.225Z,99586.50
2022-11-14T00:04:29.226Z,99582.31
2022-11-14T00:07:22.115Z,99583.00
2022-11-14T00:10:12.478Z,99583.94
2022-11-14T00:13:02.859Z,99587.19
2022-11-14T00:15:55.855Z,99605.16
2022-11-14T00:18:45.817Z,99608.00
2022-11-14T00:21:36.182Z,99609.75
2022-11-14T00:24:27.867Z,99615.22
2022-11-14T00:27:17.897Z,99622.66
2022-11-14T00:30:08.216Z,99628.66
2022-11-14T00:32:57.479Z,99629.78
2022-11-14T00:35:53.813Z,99632.91
2022-11-14T00:38:43.556Z,99641.44
2022-11-14T00:41:35.480Z,99636.00
2022-11-14T00:44:24.966Z,99644.34
2022-11-14T00:47:14.531Z,99647.03
2022-11-14T00:50:04.878Z,99650.81
2022-11-14T00:52:54.651Z,99655.13
2022-11-14T00:55:44.583Z,99659.81
2022-11-14T00:58:35.759Z,99663.66
2022-11-14T01:01:25.936Z,99662.16
2022-11-14T01:04:16.294Z,99667.59
2022-11-14T01:07:05.642Z,99675.94
2022-11-14T01:09:55.589Z,99665.84
2022-11-14T01:12:46.030Z,99669.88
2022-11-14T01:15:37.062Z,99674.47
2022-11-14T01:18:26.615Z,99670.69
2022-11-14T01:21:17.309Z,99683.06
2022-11-14T01:24:07.673Z,99682.84
2022-11-14T01:26:58.708Z,99691.00
2022-11-14T01:29:48.243Z,99687.00
2022-11-14T01:32:40.059Z,99688.88
2022-11-14T01:35:29.387Z,99689.09
2022-11-14T01:38:19.606Z,99694.31
2022-11-14T01:41:09.785Z,99697.41
2022-11-14T01:44:00.200Z,99695.09
2022-11-14T01:46:53.789Z,99709.34
2022-11-14T01:49:47.852Z,99712.31
2022-11-14T01:52:38.506Z,99717.25
2022-11-14T01:55:29.014Z,99714.94
2022-11-14T01:58:19.284Z,99723.75
2022-11-14T02:01:08.687Z,99734.63
2022-11-14T02:03:59.260Z,99739.66
2022-11-14T02:06:50.556Z,99753.03
2022-11-14T02:09:42.329Z,99748.88
2022-11-14T02:12:32.912Z,99756.19
2022-11-14T02:15:22.239Z,99754.94
2022-11-14T02:18:11.871Z,99763.13
2022-11-14T02:21:03.415Z,99766.50
2022-11-14T02:23:53.895Z,99766.06
2022-11-14T02:26:44.985Z,99775.25
2022-11-14T02:29:35.971Z,99773.94
2022-11-14T02:32:25.708Z,99786.09
2022-11-14T02:35:16.547Z,99781.00
2022-11-14T02:38:08.070Z,99781.63
2022-11-14T02:41:04.838Z,99781.16
2022-11-14T02:43:54.218Z,99786.84
2022-11-14T02:46:44.651Z,99792.50
2022-11-14T02:49:38.083Z,99792.00
2022-11-14T02:52:28.601Z,99797.63
2022-11-14T02:55:20.191Z,99803.47
2022-11-14T02:58:13.638Z,99804.09
2022-11-14T03:01:20.282Z,99811.00
2022-11-14T03:04:11.514Z,99809.81
2022-11-14T03:07:01.528Z,99814.56
2022-11-14T03:09:51.271Z,99817.50
2022-11-14T03:12:42.077Z,99817.06
2022-11-14T03:15:31.883Z,99822.97
2022-11-14T03:18:22.407Z,99825.06
2022-11-14T03:21:12.546Z,99824.22
2022-11-14T03:24:02.585Z,99827.06
2022-11-14T03:26:52.038Z,99832.03
2022-11-14T03:29:43.896Z,99838.75
2022-11-14T03:32:33.792Z,99845.28
2022-11-14T03:35:24.540Z,99842.91
2022-11-14T03:38:14.265Z,99842.50
2022-11-14T03:41:04.435Z,99850.63
2022-11-14T03:43:53.959Z,99838.25
2022-11-14T03:46:45.481Z,99838.88
2022-11-14T03:49:34.868Z,99850.53
2022-11-14T03:52:24.594Z,99859.03
2022-11-14T03:55:14.661Z,99851.84
2022-11-14T03:58:04.593Z,99850.78
2022-11-14T04:00:54.979Z,99851.78
2022-11-14T04:03:47.533Z,99843.47
2022-11-14T04:06:37.238Z,99851.56
2022-11-14T04:09:27.503Z,99853.25
2022-11-14T04:12:17.277Z,99852.44
2022-11-14T04:15:06.908Z,99847.41
2022-11-14T04:17:56.819Z,99854.84
2022-11-14T04:20:47.989Z,99851.53
2022-11-14T04:23:37.714Z,99849.25
2022-11-14T04:26:27.283Z,99846.97
2022-11-14T04:29:17.058Z,99851.00
2022-11-14T04:32:07.710Z,99841.91
2022-11-14T04:34:59.702Z,99843.56
2022-11-14T04:37:51.538Z,99849.69
2022-11-14T04:40:41.007Z,99850.56
2022-11-14T04:43:30.967Z,99843.88
2022-11-14T04:46:20.497Z,99850.72
2022-11-14T04:49:10.068Z,99839.78
2022-11-14T04:52:00.114Z,99842.03
2022-11-14T04:54:51.235Z,99841.56
2022-11-14T04:57:40.717Z,99835.31
2022-11-14T05:00:30.682Z,99825.06
2022-11-14T05:03:20.720Z,99833.25
2022-11-14T05:06:11.192Z,99828.44
2022-11-14T05:09:08.520Z,99824.03
2022-11-14T05:12:03.109Z,99810.47
2022-11-14T05:14:53.151Z,99813.13
2022-11-14T05:17:42.591Z,99805.84
2022-11-14T05:20:32.478Z,99813.34
2022-11-14T05:23:23.604Z,99807.13
2022-11-14T05:26:16.003Z,99803.13
2022-11-14T05:29:07.938Z,99798.91
2022-11-14T05:31:58.213Z,99784.88
2022-11-14T05:34:48.066Z,99784.00
2022-11-14T05:37:38.517Z,99778.53
2022-11-14T05:40:28.636Z,99786.75
2022-11-14T05:43:19.805Z,99784.88
2022-11-14T05:46:14.107Z,99778.44
2022-11-14T05:49:05.243Z,99773.03
2022-11-14T05:51:54.490Z,99759.22
2022-11-14T05:54:47.656Z,99763.16
2022-11-14T05:57:39.033Z,99752.56
2022-11-14T06:00:29.866Z,99751.13
2022-11-14T06:03:22.303Z,99745.16
2022-11-14T06:06:13.321Z,99741.47
2022-11-14T06:09:03.066Z,99739.41
2022-11-14T06:11:53.791Z,99739.75
2022-11-14T06:14:43.227Z,99732.63
2022-11-14T06:17:33.202Z,99725.00
2022-11-14T06:20:25.167Z,99710.94
2022-11-14T06:23:16.764Z,99703.78
2022-11-14T06:26:09.765Z,99707.00
2022-11-14T06:29:00.578Z,99694.56
2022-11-14T06:31:50.806Z,99696.16
2022-11-14T06:34:40.674Z,99688.03
2022-11-14T06:37:33.850Z,99691.22
2022-11-14T06:40:23.715Z,99678.00
2022-11-14T06:43:13.396Z,99674.88
2022-11-14T06:46:03.094Z,99663.38
2022-11-14T06:48:53.994Z,99655.91
2022-11-14T06:51:44.342Z,99659.94
2022-11-14T06:54:36.956Z,99654.53
2022-11-14T06:57:53.060Z,99646.88
2022-11-14T07:00:48.979Z,99646.47
2022-11-14T07:03:40.929Z,99638.06
2022-11-14T07:06:31.051Z,99625.41
2022-11-14T07:09:20.595Z,99624.56
2022-11-14T07:12:17.670Z,99612.94
2022-11-14T07:15:08.088Z,99610.22
2022-11-14T07:17:58.169Z,99606.28
2022-11-14T07:20:50.615Z,99604.41
2022-11-14T07:23:41.390Z,99599.72
2022-11-14T07:26:31.818Z,99606.28
2022-11-14T07:29:23.318Z,99597.78
2022-11-14T07:32:13.110Z,99591.66
2022-11-14T07:35:03.169Z,99589.66
2022-11-14T07:37:53.307Z,99592.41
2022-11-14T07:40:43.396Z,99573.88
2022-11-14T07:43:33.591Z,99570.47
2022-11-14T07:46:25.198Z,99571.69
2022-11-14T07:49:14.824Z,99562.63
2022-11-14T07:52:05.002Z,99560.22
2022-11-14T07:54:57.863Z,99561.06
2022-11-14T07:57:49.404Z,99549.56
2022-11-14T08:00:40.073Z,99545.81
2022-11-14T08:03:33.037Z,99539.56
2022-11-14T08:06:23.342Z,99538.00
2022-11-14T08:09:13.815Z,99536.94
2022-11-14T08:12:04.246Z,99534.00
2022-11-14T08:14:55.056Z,99529.50
2022-11-14T08:17:45.245Z,99531.25
2022-11-14T08:20:36.822Z,99528.28
2022-11-14T08:23:27.091Z,99519.81
2022-11-14T08:26:17.209Z,99522.00
2022-11-14T08:29:08.290Z,99514.84
2022-11-14T08:32:00.096Z,99508.84
2022-11-14T08:34:50.531Z,99508.31
2022-11-14T08:37:43.783Z,99498.91
2022-11-14T08:40:33.987Z,99492.47
2022-11-14T08:43:24.235Z,99500.78
2022-11-14T08:46:14.910Z,99486.53
2022-11-14T08:49:04.689Z,99489.25
2022-11-14T08:51:55.410Z,99484.13
2022-11-14T08:54:47.074Z,99475.47
2022-11-14T08:57:36.323Z,99471.84
2022-11-14T09:00:27.090Z,99473.66
2022-11-14T09:03:17.678Z,99473.06
2022-11-14T09:06:08.205Z,99464.03
2022-11-14T09:08:58.203Z,99457.09
2022-11-14T09:11:49.389Z,99452.56
2022-11-14T09:14:39.377Z,99455.16
2022-11-14T09:17:29.977Z,99445.84
2022-11-14T09:20:21.314Z,99446.91
2022-11-14T09:23:13.749Z,99443.09
2022-11-14T09:26:09.227Z,99438.38
2022-11-14T09:29:01.742Z,99440.34
2022-11-14T09:31:54.861Z,99431.91
2022-11-14T09:34:47.361Z,99431.84
2022-11-14T09:37:38.986Z,99434.84
2022-11-14T09:40:29.446Z,99427.56
2022-11-14T09:43:29.446Z,99433.19
2022-11-14T09:46:25.134Z,99432.03
2022-11-14T09:49:23.657Z,99420.22
2022-11-14T09:52:18.067Z,99420.16
2022-11-14T09:55:14.633Z,99412.38
2022-11-14T09:58:06.028Z,99420.81
2022-11-14T10:01:07.923Z,99407.63
2022-11-14T10:04:08.303Z,99412.13
2022-11-14T10:07:04.696Z,99425.06
2022-11-14T10:10:01.196Z,99413.38
2022-11-14T10:12:56.223Z,99416.50
2022-11-14T10:15:50.128Z,99411.59
2022-11-14T10:18:48.429Z,99409.63
2022-11-14T10:21:44.614Z,99413.06
2022-11-14T10:24:43.053Z,99408.47
2022-11-14T10:27:36.052Z,99400.91
2022-11-14T10:30:27.052Z,99407.16
2022-11-14T10:33:24.238Z,99403.03
2022-11-14T10:36:18.805Z,99400.28
2022-11-14T10:39:18.353Z,99399.66
2022-11-14T10:42:14.665Z,99399.47
2022-11-14T10:45:08.449Z,99398.94
2022-11-14T10:48:01.421Z,99400.50
2022-11-14T10:50:56.683Z,99403.44
2022-11-14T10:53:51.898Z,99398.47
2022-11-14T10:56:52.074Z,99395.31
2022-11-14T10:59:42.639Z,99391.84
2022-11-14T11:02:50.344Z,99391.94
2022-11-14T11:05:49.090Z,99393.44
2022-11-14T11:09:01.914Z,99404.03
2022-11-14T11:11:58.424Z,99400.13
2022-11-14T11:14:49.291Z,99400.38
2022-11-14T11:17:42.937Z,99402.53
2022-11-14T11:20:34.498Z,99400.50
2022-11-14T11:23:28.580Z,99395.69
2022-11-14T11:26:25.717Z,99399.75
2022-11-14T11:29:21.334Z,99397.28
2022-11-14T11:32:11.851Z,99394.94
2022-11-14T11:35:03.954Z,99388.94
2022-11-14T11:37:56.986Z,99397.28
2022-11-14T11:40:47.036Z,99399.25
2022-11-14T11:43:42.691Z,99406.34
2022-11-14T11:46:38.391Z,99419.59
2022-11-14T11:49:35.945Z,99412.53
2022-11-14T11:52:31.889Z,99416.34
2022-11-14T11:55:24.150Z,99421.28
2022-11-14T11:58:19.424Z,99416.94
2022-11-14T12:01:09.048Z,99412.88
2022-11-14T12:04:01.120Z,99417.75
2022-11-14T12:06:57.678Z,99419.94
2022-11-14T12:10:09.737Z,99420.91
2022-11-14T12:13:08.424Z,99422.47
2022-11-14T12:16:06.573Z,99425.44
2022-11-14T12:19:11.745Z,99421.22
2022-11-14T12:22:14.528Z,99419.78
2022-11-14T12:25:12.378Z,99424.59
2022-11-14T12:28:12.370Z,99423.78
2022-11-14T12:31:04.801Z,99431.91
2022-11-14T12:33:57.401Z,99436.66
2022-11-14T12:36:50.161Z,99439.03
2022-11-14T12:39:40.498Z,99435.59
2022-11-14T12:42:31.871Z,99446.16
2022-11-14T12:45:39.908Z,99440.13
2022-11-14T12:48:40.058Z,99450.19
2022-11-14T12:51:47.812Z,99455.47
2022-11-14T12:54:50.802Z,99457.75
2022-11-14T12:57:53.295Z,99453.94
2022-11-14T13:01:02.626Z,99462.91
2022-11-14T13:03:58.966Z,99465.03
2022-11-14T13:06:56.123Z,99465.88
2022-11-14T13:09:57.506Z,99476.84
2022-11-14T13:13:16.730Z,99477.59
2022-11-14T13:16:38.595Z,99478.66
2022-11-14T13:19:45.733Z,99479.66
2022-11-14T13:22:47.426Z,99487.88
2022-11-14T13:25:37.621Z,99492.16
2022-11-14T13:28:46.058Z,99495.03
2022-11-14T13:31:53.071Z,99502.56
2022-11-14T13:34:54.432Z,99506.00
2022-11-14T13:38:03.032Z,99505.53
2022-11-14T13:40:57.176Z,99512.81
2022-11-14T13:43:59.843Z,99520.41
2022-11-14T13:47:12.411Z,99524.94
2022-11-14T13:50:06.678Z,99522.56
2022-11-14T13:52:56.254Z,99525.88
2022-11-14T13:55:59.583Z,99532.91
2022-11-14T13:59:00.381Z,99534.09
2022-11-14T14:02:08.769Z,99538.88
2022-11-14T14:05:04.164Z,99541.81
2022-11-14T14:08:08.192Z,99541.94
2022-11-14T14:11:04.131Z,99551.22
2022-11-14T14:13:59.536Z,99559.66
2022-11-14T14:16:59.784Z,99561.59
2022-11-14T14:19:57.029Z,99557.41
2022-11-14T14:22:51.179Z,99560.03
2022-11-14T14:25:45.657Z,99577.19
2022-11-14T14:28:42.586Z,99569.22
2022-11-14T14:31:37.563Z,99573.22
2022-11-14T14:34:28.646Z,99573.06
2022-11-14T14:37:22.432Z,99574.63
2022-11-14T14:40:26.355Z,99568.94
2022-11-14T14:43:26.324Z,99572.13
2022-11-14T14:46:16.164Z,99574.47
2022-11-14T14:49:07.669Z,99569.53
2022-11-14T14:51:58.920Z,99583.78
2022-11-14T14:54:57.573Z,99588.28
2022-11-14T14:57:47.193Z,99590.34
2022-11-14T15:00:40.098Z,99587.53
2022-11-14T15:03:36.623Z,99588.94
2022-11-14T15:06:31.483Z,99593.41
2022-11-14T15:09:23.071Z,99588.03
2022-11-14T15:12:13.073Z,99597.00
2022-11-14T15:15:03.675Z,99601.59
2022-11-14T15:18:00.195Z,99602.81
2022-11-14T15:21:10.335Z,99593.22
2022-11-14T15:24:05.947Z,99601.31
2022-11-14T15:26:56.266Z,99595.25
2022-11-14T15:29:50.186Z,99597.59
2022-11-14T15:32:39.817Z,99597.44
2022-11-14T15:35:36.143Z,99596.44
2022-11-14T15:41:36.616Z,99605.19
2022-11-14T15:44:33.349Z,99595.66
2022-11-14T15:47:26.006Z,99604.13
2022-11-14T15:50:29.015Z,99596.81
2022-11-14T15:53:25.686Z,99603.84
2022-11-14T15:56:19.148Z,99602.47
2022-11-14T15:59:09.228Z,99605.91
2022-11-14T16:02:02.927Z,99612.59
2022-11-14T16:04:55.134Z,99605.00
2022-11-14T16:07:45.110Z,99609.38
2022-11-14T16:10:41.093Z,99604.63
2022-11-14T16:13:36.993Z,99611.22
2022-11-14T16:16:27.656Z,99608.84
2022-11-14T16:19:20.589Z,99613.16
2022-11-14T16:22:16.361Z,99613.16
2022-11-14T16:25:07.180Z,99617.16
2022-11-14T16:28:00.561Z,99620.47
2022-11-14T16:30:50.828Z,99629.91
2022-11-14T16:33:41.813Z,99620.56
2022-11-14T16:36:31.930Z,99624.97
2022-11-14T16:39:21.637Z,99623.09
2022-11-14T16:42:13.498Z,99631.72
2022-11-14T16:45:05.234Z,99631.31
2022-11-14T16:47:55.244Z,99639.34
2022-11-14T16:50:45.253Z,99631.81
2022-11-14T16:53:34.626Z,99632.84
2022-11-14T16:56:23.884Z,99632.66
2022-11-14T16:59:13.992Z,99633.91
2022-11-14T17:02:08.918Z,99629.72
2022-11-14T17:04:59.166Z,99628.91
2022-11-14T17:07:49.255Z,99626.19
2022-11-14T17:10:43.164Z,99624.31
2022-11-14T17:13:33.571Z,99626.97
2022-11-14T17:16:23.422Z,99626.66
2022-11-14T17:19:14.937Z,99632.50
2022-11-14T17:22:05.372Z,99634.06
2022-11-14T17:24:55.293Z,99627.16
2022-11-14T17:27:46.040Z,99631.06
2022-11-14T17:30:35.394Z,99622.94
2022-11-14T17:33:25.585Z,99621.94
2022-11-14T17:36:17.181Z,99622.06
2022-11-14T17:39:07.157Z,99616.97
2022-11-14T17:41:57.014Z,99617.75
2022-11-14T17:44:46.823Z,99611.41
2022-11-14T17:47:37.038Z,99613.81
2022-11-14T17:50:27.292Z,99608.91
2022-11-14T17:53:19.046Z,99600.34
2022-11-14T17:56:09.792Z,99605.69
2022-11-14T17:58:59.380Z,99610.72
2022-11-14T18:01:49.928Z,99613.44
2022-11-14T18:04:39.510Z,99618.19
2022-11-14T18:07:29.864Z,99614.78
2022-11-14T18:10:21.081Z,99616.56
2022-11-14T18:13:10.204Z,99622.31
2022-11-14T18:16:03.919Z,99617.50
2022-11-14T18:18:54.456Z,99614.78
2022-11-14T18:21:47.915Z,99614.41
2022-11-14T18:24:42.926Z,99615.28
2022-11-14T18:27:34.656Z,99613.81
2022-11-14T18:33:33.385Z,99593.94
2022-11-14T18:36:23.544Z,99599.44
2022-11-14T18:39:13.707Z,99596.88
2022-11-14T18:42:04.384Z,99593.38
2022-11-14T18:44:55.553Z,99595.25
2022-11-14T18:47:45.685Z,99587.25
2022-11-14T18:50:35.484Z,99591.22
2022-11-14T18:53:25.213Z,99589.13
2022-11-14T18:56:16.119Z,99584.75
2022-11-14T18:59:06.580Z,99583.69
2022-11-14T19:01:59.840Z,99587.28
2022-11-14T19:04:49.031Z,99588.78
2022-11-14T19:07:39.946Z,99586.88
2022-11-14T19:10:29.180Z,99591.06
2022-11-14T19:13:18.254Z,99597.78
2022-11-14T19:16:08.560Z,99591.91
2022-11-14T19:18:59.773Z,99597.16
2022-11-14T19:21:51.472Z,99596.75
2022-11-14T19:24:44.362Z,99589.84
2022-11-14T19:27:33.371Z,99599.47
2022-11-14T19:30:23.254Z,99597.78
2022-11-14T19:33:13.209Z,99587.13
2022-11-14T19:36:07.672Z,99589.81
2022-11-14T19:38:57.398Z,99588.13
2022-11-14T19:41:47.220Z,99586.41
2022-11-14T19:44:36.779Z,99588.88
2022-11-14T19:47:26.635Z,99585.94
2022-11-14T19:50:16.119Z,99582.63
2022-11-14T19:53:07.445Z,99584.75
2022-11-14T19:56:01.589Z,99580.13
2022-11-14T19:58:52.528Z,99585.56
2022-11-14T20:01:43.444Z,99579.72
2022-11-14T20:04:37.802Z,99583.31
2022-11-14T20:07:27.541Z,99569.88
2022-11-14T20:10:19.643Z,99569.66
2022-11-14T20:13:09.626Z,99559.19
2022-11-14T20:15:59.222Z,99560.91
2022-11-14T20:18:54.445Z,99555.28
2022-11-14T20:21:47.149Z,99550.47
2022-11-14T20:24:37.259Z,99550.69
2022-11-14T20:27:28.276Z,99542.34
2022-11-14T20:30:18.382Z,99539.41
2022-11-14T20:33:07.793Z,99532.94
2022-11-14T20:35:57.461Z,99536.47
2022-11-14T20:38:47.218Z,99530.41
2022-11-14T20:41:36.954Z,99524.94
2022-11-14T20:44:27.856Z,99532.38
2022-11-14T20:47:18.781Z,99525.84
2022-11-14T20:50:08.577Z,99522.28
2022-11-14T20:52:58.180Z,99521.44
2022-11-14T20:55:47.939Z,99520.63
2022-11-14T20:58:36.916Z,99509.69
2022-11-14T21:01:28.115Z,99518.53
2022-11-14T21:04:17.585Z,99515.75
2022-11-14T21:07:07.468Z,99508.22
2022-11-14T21:10:10.538Z,99507.94
2022-11-14T21:13:16.307Z,99503.44
2022-11-14T21:16:06.116Z,99504.47
2022-11-14T21:18:58.329Z,99502.41
2022-11-14T21:21:47.967Z,99501.13
2022-11-14T21:24:39.794Z,99487.75
2022-11-14T21:27:29.148Z,99496.03
2022-11-14T21:30:19.144Z,99499.84
2022-11-14T21:33:08.456Z,99498.63
2022-11-14T21:36:16.615Z,99498.84
2022-11-14T21:39:16.353Z,99500.53
2022-11-14T21:42:05.897Z,99504.50
2022-11-14T21:44:55.057Z,99509.50
2022-11-14T21:47:44.959Z,99498.00
2022-11-14T21:50:36.058Z,99496.75
2022-11-14T21:53:27.316Z,99499.47
2022-11-14T21:56:18.146Z,99494.69
2022-11-14T21:59:19.837Z,99498.03
2022-11-14T22:02:27.131Z,99500.53
2022-11-14T22:05:17.005Z,99504.09
2022-11-14T22:08:07.287Z,99509.50
2022-11-14T22:11:03.207Z,99498.63
2022-11-14T22:13:53.189Z,99501.38
2022-11-14T22:16:42.868Z,99497.81
2022-11-14T22:19:32.154Z,99497.38
2022-11-14T22:22:21.599Z,99508.47
2022-11-14T22:25:11.992Z,99503.66
2022-11-14T22:28:02.782Z,99504.69
2022-11-14T22:30:52.402Z,99488.81
2022-11-14T22:33:46.663Z,99498.41
2022-11-14T22:36:36.871Z,99494.47
2022-11-14T22:39:26.176Z,99498.38
2022-11-14T22:42:15.701Z,99498.38
2022-11-14T22:45:07.364Z,99495.25
2022-11-14T22:47:59.763Z,99497.97
2022-11-14T22:50:48.943Z,99499.25
2022-11-14T22:53:38.970Z,99503.44
2022-11-14T22:56:29.794Z,99497.78
2022-11-14T22:59:19.463Z,99500.47
2022-11-14T23:02:10.757Z,99499.06
2022-11-14T23:05:00.879Z,99504.91
2022-11-14T23:07:50.611Z,99502.81
2022-11-14T23:10:39.851Z,99494.69
2022-11-14T23:13:30.264Z,99506.59
2022-11-14T23:16:20.926Z,99504.47
2022-11-14T23:19:12.035Z,99511.16
2022-11-14T23:22:01.534Z,99512.84
2022-11-14T23:24:51.183Z,99524.25
2022-11-14T23:27:40.880Z,99513.19
2022-11-14T23:30:30.136Z,99518.41
2022-11-14T23:33:19.709Z,99527.09
2022-11-14T23:36:11.067Z,99525.78
2022-11-14T23:39:00.856Z,99522.69
2022-11-14T23:41:50.450Z,99520.50
2022-11-14T23:44:39.731Z,99531.09
2022-11-14T23:47:29.302Z,99532.84
2022-11-14T23:50:19.440Z,99537.53
2022-11-14T23:53:10.312Z,99543.81
2022-11-14T23:56:00.912Z,99554.03
2022-11-14T23:58:50.497Z,99556.53
